Terminal Aerodrome Forecast
Issued by NWS

Home | Current Version | Previous Version | Text Only | Print | Product List | Glossary On
Versions: 1 2 3 4 5 6 7 8 9 10 11 12 13 14 15 16 17 18 19 20 21 22 23
166
FTUS41 KBTV 120538
TAFMPV
TAF
KMPV 120538Z 1206/1306 31015G25KT P6SM OVC020
     FM120900 30010G17KT P6SM SCT025
     FM121100 29007KT P6SM BKN140
     FM121500 20005KT P6SM SCT045
     FM121800 20007KT P6SM BKN040
     FM130500 17011G20KT P6SM VCSH BKN050=

USA.gov is the U.S. government's official web portal to all federal, state and local government web resources and services.